sensor_id;sensor_type;location;lat;lon;timestamp;pressure;altitude;pressure_sealevel;temperature;humidity
79645;BME280;69117;47.148;18.954;2023-09-07T00:02:23;101261.56;;;14.02;100.00
79645;BME280;69117;47.148;18.954;2023-09-07T00:05:40;101263.22;;;14.03;100.00
79645;BME280;69117;47.148;18.954;2023-09-07T00:08:42;101262.09;;;14.06;100.00
79645;BME280;69117;47.148;18.954;2023-09-07T00:11:45;101249.28;;;14.01;100.00
79645;BME280;69117;47.148;18.954;2023-09-07T00:14:46;101257.41;;;14.27;100.00
79645;BME280;69117;47.148;18.954;2023-09-07T00:17:48;101262.16;;;14.33;100.00
79645;BME280;69117;47.148;18.954;2023-09-07T00:20:50;101263.28;;;14.31;100.00
79645;BME280;69117;47.148;18.954;2023-09-07T00:23:52;101263.28;;;14.31;100.00
79645;BME280;69117;47.148;18.954;2023-09-07T00:26:54;101260.25;;;14.26;100.00
79645;BME280;69117;47.148;18.954;2023-09-07T00:29:55;101262.69;;;14.37;100.00
79645;BME280;69117;47.148;18.954;2023-09-07T00:32:59;101263.97;;;14.33;100.00
79645;BME280;69117;47.148;18.954;2023-09-07T00:36:01;101264.81;;;14.33;100.00
79645;BME280;69117;47.148;18.954;2023-09-07T00:39:04;101257.13;;;14.30;100.00
79645;BME280;69117;47.148;18.954;2023-09-07T00:42:06;101258.13;;;14.29;100.00
79645;BME280;69117;47.148;18.954;2023-09-07T00:45:08;101263.97;;;14.33;100.00
79645;BME280;69117;47.148;18.954;2023-09-07T00:48:12;101264.97;;;14.32;100.00
79645;BME280;69117;47.148;18.954;2023-09-07T00:51:14;101270.94;;;14.43;100.00
79645;BME280;69117;47.148;18.954;2023-09-07T00:54:16;101253.50;;;14.31;100.00
79645;BME280;69117;47.148;18.954;2023-09-07T00:57:18;101270.13;;;14.33;100.00
79645;BME280;69117;47.148;18.954;2023-09-07T01:00:20;101266.69;;;14.23;100.00
79645;BME280;69117;47.148;18.954;2023-09-07T01:03:22;101277.44;;;14.21;100.00
79645;BME280;69117;47.148;18.954;2023-09-07T01:06:31;101268.22;;;14.16;100.00
79645;BME280;69117;47.148;18.954;2023-09-07T01:09:35;101275.78;;;14.20;100.00
79645;BME280;69117;47.148;18.954;2023-09-07T01:12:39;101275.47;;;14.24;100.00
79645;BME280;69117;47.148;18.954;2023-09-07T01:15:42;101267.38;;;14.15;100.00
79645;BME280;69117;47.148;18.954;2023-09-07T01:18:44;101268.63;;;14.21;100.00
79645;BME280;69117;47.148;18.954;2023-09-07T01:21:47;101278.56;;;14.19;100.00
79645;BME280;69117;47.148;18.954;2023-09-07T01:24:50;101279.97;;;14.23;100.00
79645;BME280;69117;47.148;18.954;2023-09-07T01:27:53;101269.59;;;14.30;100.00
79645;BME280;69117;47.148;18.954;2023-09-07T01:30:55;101268.59;;;14.31;100.00
79645;BME280;69117;47.148;18.954;2023-09-07T01:33:57;101263.84;;;14.25;100.00
79645;BME280;69117;47.148;18.954;2023-09-07T01:36:59;101270.72;;;14.27;100.00
79645;BME280;69117;47.148;18.954;2023-09-07T01:40:01;101274.31;;;14.36;100.00
79645;BME280;69117;47.148;18.954;2023-09-07T01:43:05;101268.41;;;14.42;100.00
79645;BME280;69117;47.148;18.954;2023-09-07T01:46:07;101271.47;;;14.47;100.00
79645;BME280;69117;47.148;18.954;2023-09-07T01:49:08;101272.88;;;14.51;100.00
79645;BME280;69117;47.148;18.954;2023-09-07T01:52:10;101274.81;;;14.49;100.00
79645;BME280;69117;47.148;18.954;2023-09-07T01:55:12;101276.91;;;14.55;100.00
79645;BME280;69117;47.148;18.954;2023-09-07T01:58:14;101277.06;;;14.54;100.00
79645;BME280;69117;47.148;18.954;2023-09-07T02:01:27;101277.91;;;14.54;100.00
79645;BME280;69117;47.148;18.954;2023-09-07T02:04:28;101279.56;;;14.55;100.00
79645;BME280;69117;47.148;18.954;2023-09-07T02:07:30;101281.00;;;14.50;100.00
79645;BME280;69117;47.148;18.954;2023-09-07T02:10:33;101289.38;;;14.45;100.00
79645;BME280;69117;47.148;18.954;2023-09-07T02:13:35;101279.50;;;14.28;100.00
79645;BME280;69117;47.148;18.954;2023-09-07T02:16:37;101273.41;;;14.17;100.00
79645;BME280;69117;47.148;18.954;2023-09-07T02:19:38;101274.53;;;14.15;100.00
79645;BME280;69117;47.148;18.954;2023-09-07T02:22:40;101277.94;;;14.07;100.00
79645;BME280;69117;47.148;18.954;2023-09-07T02:25:42;101279.19;;;14.03;100.00
79645;BME280;69117;47.148;18.954;2023-09-07T02:28:44;101268.59;;;13.84;100.00
79645;BME280;69117;47.148;18.954;2023-09-07T02:31:46;101281.06;;;13.83;100.00
79645;BME280;69117;47.148;18.954;2023-09-07T02:34:48;101277.81;;;13.80;100.00
79645;BME280;69117;47.148;18.954;2023-09-07T02:37:50;101277.41;;;13.84;100.00
79645;BME280;69117;47.148;18.954;2023-09-07T02:40:52;101275.16;;;13.80;100.00
79645;BME280;69117;47.148;18.954;2023-09-07T02:43:54;101275.00;;;13.91;100.00
79645;BME280;69117;47.148;18.954;2023-09-07T02:46:56;101276.56;;;13.84;100.00
79645;BME280;69117;47.148;18.954;2023-09-07T02:49:57;101267.34;;;13.78;100.00
79645;BME280;69117;47.148;18.954;2023-09-07T02:53:00;101282.44;;;13.87;100.00
79645;BME280;69117;47.148;18.954;2023-09-07T02:56:02;101284.53;;;13.84;100.00
79645;BME280;69117;47.148;18.954;2023-09-07T02:59:05;101278.25;;;13.75;100.00
79645;BME280;69117;47.148;18.954;2023-09-07T03:02:07;101286.63;;;13.70;100.00
79645;BME280;69117;47.148;18.954;2023-09-07T03:05:09;101285.94;;;13.78;100.00
79645;BME280;69117;47.148;18.954;2023-09-07T03:08:11;101283.88;;;13.62;100.00
79645;BME280;69117;47.148;18.954;2023-09-07T03:11:12;101280.09;;;13.55;100.00
79645;BME280;69117;47.148;18.954;2023-09-07T03:14:14;101279.38;;;13.43;100.00
79645;BME280;69117;47.148;18.954;2023-09-07T03:17:16;101286.97;;;13.38;100.00
79645;BME280;69117;47.148;18.954;2023-09-07T03:20:18;101284.84;;;13.32;100.00
79645;BME280;69117;47.148;18.954;2023-09-07T03:23:20;101291.28;;;13.29;100.00
79645;BME280;69117;47.148;18.954;2023-09-07T03:26:22;101284.69;;;13.34;100.00
79645;BME280;69117;47.148;18.954;2023-09-07T03:29:23;101284.84;;;13.42;100.00
79645;BME280;69117;47.148;18.954;2023-09-07T03:32:25;101278.97;;;13.48;100.00
79645;BME280;69117;47.148;18.954;2023-09-07T03:35:30;101267.94;;;13.33;100.00
79645;BME280;69117;47.148;18.954;2023-09-07T03:38:31;101281.78;;;13.37;100.00
79645;BME280;69117;47.148;18.954;2023-09-07T03:41:34;101282.31;;;13.31;100.00
79645;BME280;69117;47.148;18.954;2023-09-07T03:44:35;101279.28;;;13.25;100.00
79645;BME280;69117;47.148;18.954;2023-09-07T03:47:38;101279.09;;;13.17;100.00
79645;BME280;69117;47.148;18.954;2023-09-07T03:50:40;101286.78;;;13.20;100.00
79645;BME280;69117;47.148;18.954;2023-09-07T03:53:42;101282.13;;;13.13;100.00
79645;BME280;69117;47.148;18.954;2023-09-07T03:56:43;101283.84;;;13.14;100.00
79645;BME280;69117;47.148;18.954;2023-09-07T03:59:45;101277.81;;;13.12;100.00
79645;BME280;69117;47.148;18.954;2023-09-07T04:02:47;101289.97;;;13.14;100.00
79645;BME280;69117;47.148;18.954;2023-09-07T04:05:50;101289.16;;;13.14;100.00
79645;BME280;69117;47.148;18.954;2023-09-07T04:08:52;101290.09;;;13.13;100.00
79645;BME280;69117;47.148;18.954;2023-09-07T04:11:53;101296.94;;;13.15;100.00
79645;BME280;69117;47.148;18.954;2023-09-07T04:14:55;101291.09;;;13.12;100.00
79645;BME280;69117;47.148;18.954;2023-09-07T04:17:57;101296.28;;;13.13;100.00
79645;BME280;69117;47.148;18.954;2023-09-07T04:21:05;101309.66;;;13.12;100.00
79645;BME280;69117;47.148;18.954;2023-09-07T04:24:07;101312.47;;;13.10;100.00
79645;BME280;69117;47.148;18.954;2023-09-07T04:27:09;101312.88;;;13.15;100.00
79645;BME280;69117;47.148;18.954;2023-09-07T04:30:11;101307.72;;;13.23;100.00
79645;BME280;69117;47.148;18.954;2023-09-07T04:33:13;101311.69;;;13.29;100.00
79645;BME280;69117;47.148;18.954;2023-09-07T04:36:15;101315.44;;;13.36;100.00
79645;BME280;69117;47.148;18.954;2023-09-07T04:39:16;101307.91;;;13.41;100.00
79645;BME280;69117;47.148;18.954;2023-09-07T04:42:18;101310.00;;;13.57;100.00
79645;BME280;69117;47.148;18.954;2023-09-07T04:45:20;101314.63;;;13.65;100.00
79645;BME280;69117;47.148;18.954;2023-09-07T04:48:22;101306.06;;;13.61;100.00
79645;BME280;69117;47.148;18.954;2023-09-07T04:51:23;101311.25;;;13.72;100.00
79645;BME280;69117;47.148;18.954;2023-09-07T04:54:27;101315.88;;;13.80;100.00
79645;BME280;69117;47.148;18.954;2023-09-07T04:57:30;101314.72;;;13.92;100.00
79645;BME280;69117;47.148;18.954;2023-09-07T05:00:32;101325.06;;;14.05;100.00
79645;BME280;69117;47.148;18.954;2023-09-07T05:03:34;101322.50;;;14.23;100.00
79645;BME280;69117;47.148;18.954;2023-09-07T05:06:36;101324.53;;;14.39;100.00
79645;BME280;69117;47.148;18.954;2023-09-07T05:09:40;101325.78;;;14.54;100.00
79645;BME280;69117;47.148;18.954;2023-09-07T05:12:41;101320.97;;;14.68;100.00
79645;BME280;69117;47.148;18.954;2023-09-07T05:15:50;101334.28;;;14.95;100.00
79645;BME280;69117;47.148;18.954;2023-09-07T05:18:52;101325.09;;;15.07;100.00
79645;BME280;69117;47.148;18.954;2023-09-07T05:21:54;101327.91;;;15.24;100.00
79645;BME280;69117;47.148;18.954;2023-09-07T05:24:56;101337.22;;;15.38;100.00
79645;BME280;69117;47.148;18.954;2023-09-07T05:27:59;101329.53;;;15.52;100.00
79645;BME280;69117;47.148;18.954;2023-09-07T05:31:00;101344.25;;;15.74;100.00
79645;BME280;69117;47.148;18.954;2023-09-07T05:34:02;101344.00;;;15.86;100.00
79645;BME280;69117;47.148;18.954;2023-09-07T05:37:04;101342.97;;;16.05;100.00
79645;BME280;69117;47.148;18.954;2023-09-07T05:40:06;101343.97;;;16.30;100.00
79645;BME280;69117;47.148;18.954;2023-09-07T05:43:08;101348.94;;;16.51;100.00
79645;BME280;69117;47.148;18.954;2023-09-07T05:46:10;101339.00;;;16.69;100.00
79645;BME280;69117;47.148;18.954;2023-09-07T05:49:12;101345.63;;;16.91;100.00
79645;BME280;69117;47.148;18.954;2023-09-07T05:52:13;101338.50;;;17.00;100.00
79645;BME280;69117;47.148;18.954;2023-09-07T05:55:15;101343.38;;;17.12;100.00
79645;BME280;69117;47.148;18.954;2023-09-07T05:58:17;101348.53;;;17.06;100.00
79645;BME280;69117;47.148;18.954;2023-09-07T06:01:19;101341.78;;;17.44;100.00
79645;BME280;69117;47.148;18.954;2023-09-07T06:04:20;101344.00;;;17.73;100.00
79645;BME280;69117;47.148;18.954;2023-09-07T06:07:22;101348.19;;;17.92;100.00
79645;BME280;69117;47.148;18.954;2023-09-07T06:10:24;101343.97;;;18.14;100.00
79645;BME280;69117;47.148;18.954;2023-09-07T06:13:26;101357.84;;;18.34;100.00
79645;BME280;69117;47.148;18.954;2023-09-07T06:16:27;101365.78;;;18.59;100.00
79645;BME280;69117;47.148;18.954;2023-09-07T06:19:29;101356.53;;;18.69;100.00
79645;BME280;69117;47.148;18.954;2023-09-07T06:22:31;101367.84;;;18.96;100.00
79645;BME280;69117;47.148;18.954;2023-09-07T06:25:32;101358.97;;;19.27;100.00
79645;BME280;69117;47.148;18.954;2023-09-07T06:28:34;101355.19;;;19.44;100.00
79645;BME280;69117;47.148;18.954;2023-09-07T06:31:36;101354.59;;;19.65;100.00
79645;BME280;69117;47.148;18.954;2023-09-07T06:34:38;101364.81;;;19.84;100.00
79645;BME280;69117;47.148;18.954;2023-09-07T06:37:40;101361.69;;;19.96;100.00
79645;BME280;69117;47.148;18.954;2023-09-07T06:40:48;101363.50;;;20.18;100.00
79645;BME280;69117;47.148;18.954;2023-09-07T06:43:51;101368.16;;;20.39;100.00
79645;BME280;69117;47.148;18.954;2023-09-07T06:46:52;101369.13;;;20.76;100.00
79645;BME280;69117;47.148;18.954;2023-09-07T06:49:54;101367.16;;;20.85;100.00
79645;BME280;69117;47.148;18.954;2023-09-07T06:52:56;101365.31;;;21.00;100.00
79645;BME280;69117;47.148;18.954;2023-09-07T06:55:58;101379.06;;;21.12;100.00
79645;BME280;69117;47.148;18.954;2023-09-07T06:59:00;101373.09;;;21.31;100.00
79645;BME280;69117;47.148;18.954;2023-09-07T07:02:02;101378.94;;;21.49;100.00
79645;BME280;69117;47.148;18.954;2023-09-07T07:05:06;101375.03;;;21.52;100.00
79645;BME280;69117;47.148;18.954;2023-09-07T07:08:09;101378.88;;;21.64;100.00
79645;BME280;69117;47.148;18.954;2023-09-07T07:11:11;101374.91;;;21.82;100.00
79645;BME280;69117;47.148;18.954;2023-09-07T07:14:12;101374.88;;;22.03;100.00
79645;BME280;69117;47.148;18.954;2023-09-07T07:17:14;101373.56;;;22.21;100.00
79645;BME280;69117;47.148;18.954;2023-09-07T07:20:16;101372.47;;;22.36;100.00
79645;BME280;69117;47.148;18.954;2023-09-07T07:23:18;101379.84;;;22.62;100.00
79645;BME280;69117;47.148;18.954;2023-09-07T07:26:19;101365.59;;;22.69;100.00
79645;BME280;69117;47.148;18.954;2023-09-07T07:29:21;101378.66;;;22.72;100.00
79645;BME280;69117;47.148;18.954;2023-09-07T07:32:23;101385.19;;;22.91;100.00
79645;BME280;69117;47.148;18.954;2023-09-07T07:35:24;101387.41;;;23.15;100.00
79645;BME280;69117;47.148;18.954;2023-09-07T07:38:27;101393.13;;;22.99;100.00
79645;BME280;69117;47.148;18.954;2023-09-07T07:41:28;101389.47;;;23.13;100.00
79645;BME280;69117;47.148;18.954;2023-09-07T07:44:30;101388.56;;;23.61;100.00
79645;BME280;69117;47.148;18.954;2023-09-07T07:47:32;101393.59;;;23.77;100.00
79645;BME280;69117;47.148;18.954;2023-09-07T07:50:40;101386.34;;;23.91;94.44
79645;BME280;69117;47.148;18.954;2023-09-07T07:53:41;101375.13;;;24.07;89.90
79645;BME280;69117;47.148;18.954;2023-09-07T07:56:43;101386.34;;;24.24;85.59
79645;BME280;69117;47.148;18.954;2023-09-07T07:59:45;101374.25;;;24.53;87.21
79645;BME280;69117;47.148;18.954;2023-09-07T08:02:46;101388.16;;;23.64;85.52
79645;BME280;69117;47.148;18.954;2023-09-07T08:05:48;101383.00;;;24.02;88.22
79645;BME280;69117;47.148;18.954;2023-09-07T08:08:50;101385.72;;;24.42;82.40
79645;BME280;69117;47.148;18.954;2023-09-07T08:11:52;101385.63;;;24.68;81.69
79645;BME280;69117;47.148;18.954;2023-09-07T08:14:54;101390.41;;;24.73;80.47
79645;BME280;69117;47.148;18.954;2023-09-07T08:17:57;101381.50;;;24.73;79.66
79645;BME280;69117;47.148;18.954;2023-09-07T08:20:59;101376.78;;;25.13;77.46
79645;BME280;69117;47.148;18.954;2023-09-07T08:24:01;101377.13;;;25.23;74.46
79645;BME280;69117;47.148;18.954;2023-09-07T08:27:04;101364.47;;;25.24;73.81
79645;BME280;69117;47.148;18.954;2023-09-07T08:30:06;101379.63;;;25.56;76.15
79645;BME280;69117;47.148;18.954;2023-09-07T08:33:08;101376.53;;;25.21;73.58
79645;BME280;69117;47.148;18.954;2023-09-07T08:36:10;101371.75;;;25.80;72.99
79645;BME280;69117;47.148;18.954;2023-09-07T08:39:12;101361.91;;;25.92;69.48
79645;BME280;69117;47.148;18.954;2023-09-07T08:42:15;101355.34;;;26.25;69.91
79645;BME280;69117;47.148;18.954;2023-09-07T08:45:18;101362.06;;;26.41;67.88
79645;BME280;69117;47.148;18.954;2023-09-07T08:48:23;101347.72;;;25.97;67.70
79645;BME280;69117;47.148;18.954;2023-09-07T08:51:26;101348.38;;;26.36;64.63
79645;BME280;69117;47.148;18.954;2023-09-07T08:54:30;101359.28;;;26.47;63.92
79645;BME280;69117;47.148;18.954;2023-09-07T08:57:33;101355.50;;;25.87;64.35
79645;BME280;69117;47.148;18.954;2023-09-07T09:00:37;101355.34;;;26.25;65.11
79645;BME280;69117;47.148;18.954;2023-09-07T09:03:38;101352.09;;;26.97;64.29
79645;BME280;69117;47.148;18.954;2023-09-07T09:06:40;101348.78;;;27.25;58.32
79645;BME280;69117;47.148;18.954;2023-09-07T09:09:42;101347.97;;;27.66;58.78
79645;BME280;69117;47.148;18.954;2023-09-07T09:12:47;101345.53;;;26.86;59.01
79645;BME280;69117;47.148;18.954;2023-09-07T09:15:48;101343.53;;;27.11;58.90
79645;BME280;69117;47.148;18.954;2023-09-07T09:18:52;101337.56;;;27.51;57.71
79645;BME280;69117;47.148;18.954;2023-09-07T09:21:56;101329.00;;;27.90;57.57
79645;BME280;69117;47.148;18.954;2023-09-07T09:25:03;101328.38;;;27.76;55.09
79645;BME280;69117;47.148;18.954;2023-09-07T09:28:09;101321.44;;;27.92;55.10
79645;BME280;69117;47.148;18.954;2023-09-07T09:31:11;101330.19;;;28.17;54.86
79645;BME280;69117;47.148;18.954;2023-09-07T09:34:18;101326.97;;;28.44;55.37
79645;BME280;69117;47.148;18.954;2023-09-07T09:37:19;101323.16;;;28.97;51.23
79645;BME280;69117;47.148;18.954;2023-09-07T09:40:22;101328.38;;;29.27;48.30
79645;BME280;69117;47.148;18.954;2023-09-07T09:43:25;101332.69;;;28.42;49.24
79645;BME280;69117;47.148;18.954;2023-09-07T09:46:29;101319.78;;;28.90;47.10
79645;BME280;69117;47.148;18.954;2023-09-07T09:49:33;101328.59;;;29.09;49.60
79645;BME280;69117;47.148;18.954;2023-09-07T09:52:35;101330.44;;;29.65;47.28
79645;BME280;69117;47.148;18.954;2023-09-07T09:55:40;101318.69;;;29.82;45.64
79645;BME280;69117;47.148;18.954;2023-09-07T09:58:42;101314.50;;;30.30;45.97
79645;BME280;69117;47.148;18.954;2023-09-07T10:01:45;101306.47;;;29.51;43.15
79645;BME280;69117;47.148;18.954;2023-09-07T10:04:48;101317.56;;;30.77;43.17
79645;BME280;69117;47.148;18.954;2023-09-07T10:07:52;101301.69;;;30.13;41.28
79645;BME280;69117;47.148;18.954;2023-09-07T10:10:54;101310.69;;;30.53;40.33
79645;BME280;69117;47.148;18.954;2023-09-07T10:14:02;101302.50;;;30.97;39.39
79645;BME280;69117;47.148;18.954;2023-09-07T10:17:21;101298.47;;;31.64;38.80
79645;BME280;69117;47.148;18.954;2023-09-07T10:20:23;101302.56;;;31.61;39.67
79645;BME280;69117;47.148;18.954;2023-09-07T10:23:39;101310.94;;;31.22;38.56
79645;BME280;69117;47.148;18.954;2023-09-07T10:26:42;101301.16;;;31.26;38.62
79645;BME280;69117;47.148;18.954;2023-09-07T10:29:46;101305.34;;;31.34;37.17
79645;BME280;69117;47.148;18.954;2023-09-07T10:32:56;101297.47;;;31.11;36.83
79645;BME280;69117;47.148;18.954;2023-09-07T10:36:00;101298.50;;;31.05;36.86
79645;BME280;69117;47.148;18.954;2023-09-07T10:39:02;101291.78;;;30.90;36.31
79645;BME280;69117;47.148;18.954;2023-09-07T10:42:06;101293.06;;;31.74;35.12
79645;BME280;69117;47.148;18.954;2023-09-07T10:45:12;101290.50;;;31.89;37.28
79645;BME280;69117;47.148;18.954;2023-09-07T10:48:17;101282.69;;;32.19;36.12
79645;BME280;69117;47.148;18.954;2023-09-07T10:51:19;101283.97;;;32.01;36.12
79645;BME280;69117;47.148;18.954;2023-09-07T10:54:24;101283.41;;;31.61;32.77
79645;BME280;69117;47.148;18.954;2023-09-07T10:57:26;101283.53;;;32.14;34.20
79645;BME280;69117;47.148;18.954;2023-09-07T11:00:28;101285.44;;;32.19;33.54
79645;BME280;69117;47.148;18.954;2023-09-07T11:03:31;101277.22;;;32.19;32.22
79645;BME280;69117;47.148;18.954;2023-09-07T11:06:33;101275.91;;;33.04;33.09
79645;BME280;69117;47.148;18.954;2023-09-07T11:09:42;101278.09;;;32.24;32.55
79645;BME280;69117;47.148;18.954;2023-09-07T11:12:45;101264.59;;;31.65;33.27
79645;BME280;69117;47.148;18.954;2023-09-07T11:15:47;101262.78;;;31.81;34.41
79645;BME280;69117;47.148;18.954;2023-09-07T11:18:50;101262.41;;;32.82;34.83
79645;BME280;69117;47.148;18.954;2023-09-07T11:21:55;101255.91;;;32.99;28.58
79645;BME280;69117;47.148;18.954;2023-09-07T11:24:59;101258.88;;;32.09;33.50
79645;BME280;69117;47.148;18.954;2023-09-07T11:28:03;101258.66;;;33.24;31.39
79645;BME280;69117;47.148;18.954;2023-09-07T11:31:04;101248.81;;;33.54;30.97
79645;BME280;69117;47.148;18.954;2023-09-07T11:34:13;101244.38;;;33.43;30.80
79645;BME280;69117;47.148;18.954;2023-09-07T11:37:16;101239.91;;;34.03;30.51
79645;BME280;69117;47.148;18.954;2023-09-07T11:40:18;101241.94;;;34.47;30.16
79645;BME280;69117;47.148;18.954;2023-09-07T11:43:20;101237.53;;;33.66;30.58
79645;BME280;69117;47.148;18.954;2023-09-07T11:46:22;101233.91;;;33.86;29.86
79645;BME280;69117;47.148;18.954;2023-09-07T11:49:24;101237.03;;;34.39;29.73
79645;BME280;69117;47.148;18.954;2023-09-07T11:52:26;101228.38;;;34.01;29.46
79645;BME280;69117;47.148;18.954;2023-09-07T11:55:31;101225.78;;;34.35;27.21
79645;BME280;69117;47.148;18.954;2023-09-07T11:58:33;101231.53;;;34.39;29.16
79645;BME280;69117;47.148;18.954;2023-09-07T12:01:35;101230.31;;;34.65;27.88
79645;BME280;69117;47.148;18.954;2023-09-07T12:04:37;101218.66;;;35.18;27.77
79645;BME280;69117;47.148;18.954;2023-09-07T12:07:42;101227.38;;;34.47;28.68
79645;BME280;69117;47.148;18.954;2023-09-07T12:10:46;101224.53;;;34.02;27.87
79645;BME280;69117;47.148;18.954;2023-09-07T12:13:48;101221.75;;;34.23;28.80
79645;BME280;69117;47.148;18.954;2023-09-07T12:16:50;101211.34;;;35.08;26.77
79645;BME280;69117;47.148;18.954;2023-09-07T12:19:52;101225.66;;;35.00;28.12
79645;BME280;69117;47.148;18.954;2023-09-07T12:22:53;101215.19;;;35.07;27.19
79645;BME280;69117;47.148;18.954;2023-09-07T12:25:55;101207.69;;;34.79;26.19
79645;BME280;69117;47.148;18.954;2023-09-07T12:28:57;101202.69;;;33.77;28.17
79645;BME280;69117;47.148;18.954;2023-09-07T12:31:59;101202.63;;;35.60;26.22
79645;BME280;69117;47.148;18.954;2023-09-07T12:35:01;101201.72;;;35.06;27.53
79645;BME280;69117;47.148;18.954;2023-09-07T12:38:02;101194.13;;;33.93;26.53
79645;BME280;69117;47.148;18.954;2023-09-07T12:41:05;101193.50;;;35.35;26.82
79645;BME280;69117;47.148;18.954;2023-09-07T12:44:06;101191.22;;;35.71;26.34
79645;BME280;69117;47.148;18.954;2023-09-07T12:47:08;101187.22;;;34.01;26.96
79645;BME280;69117;47.148;18.954;2023-09-07T12:50:10;101178.94;;;35.35;26.17
79645;BME280;69117;47.148;18.954;2023-09-07T12:53:12;101184.72;;;35.04;25.57
79645;BME280;69117;47.148;18.954;2023-09-07T12:56:14;101183.72;;;34.90;27.84
79645;BME280;69117;47.148;18.954;2023-09-07T12:59:17;101183.19;;;34.43;27.32
79645;BME280;69117;47.148;18.954;2023-09-07T13:02:18;101179.28;;;34.59;27.18
79645;BME280;69117;47.148;18.954;2023-09-07T13:05:20;101177.69;;;35.22;26.97
79645;BME280;69117;47.148;18.954;2023-09-07T13:08:22;101169.66;;;34.62;27.07
79645;BME280;69117;47.148;18.954;2023-09-07T13:11:23;101170.44;;;34.23;27.16
79645;BME280;69117;47.148;18.954;2023-09-07T13:14:25;101171.44;;;33.78;27.24
79645;BME280;69117;47.148;18.954;2023-09-07T13:17:34;101168.41;;;34.39;27.68
79645;BME280;69117;47.148;18.954;2023-09-07T13:20:36;101166.63;;;34.14;28.08
79645;BME280;69117;47.148;18.954;2023-09-07T13:23:38;101153.09;;;34.28;27.79
79645;BME280;69117;47.148;18.954;2023-09-07T13:26:39;101169.78;;;34.81;27.01
79645;BME280;69117;47.148;18.954;2023-09-07T13:29:41;101164.03;;;33.78;28.46
79645;BME280;69117;47.148;18.954;2023-09-07T13:32:43;101154.28;;;33.16;28.40
79645;BME280;69117;47.148;18.954;2023-09-07T13:35:47;101169.06;;;33.25;28.77
79645;BME280;69117;47.148;18.954;2023-09-07T13:38:49;101156.22;;;33.05;28.49
79645;BME280;69117;47.148;18.954;2023-09-07T13:41:53;101156.44;;;32.57;27.84
79645;BME280;69117;47.148;18.954;2023-09-07T13:44:55;101153.38;;;33.61;28.26
79645;BME280;69117;47.148;18.954;2023-09-07T13:47:57;101159.22;;;33.14;28.05
79645;BME280;69117;47.148;18.954;2023-09-07T13:50:59;101154.53;;;32.89;28.04
79645;BME280;69117;47.148;18.954;2023-09-07T13:54:01;101154.47;;;33.65;27.43
79645;BME280;69117;47.148;18.954;2023-09-07T13:57:03;101160.97;;;33.90;27.68
79645;BME280;69117;47.148;18.954;2023-09-07T14:00:07;101156.22;;;34.01;27.85
79645;BME280;69117;47.148;18.954;2023-09-07T14:03:09;101149.53;;;33.67;29.01
79645;BME280;69117;47.148;18.954;2023-09-07T14:06:10;101155.88;;;32.45;29.19
79645;BME280;69117;47.148;18.954;2023-09-07T14:09:12;101143.59;;;32.73;29.62
79645;BME280;69117;47.148;18.954;2023-09-07T14:12:14;101147.22;;;30.73;31.52
79645;BME280;69117;47.148;18.954;2023-09-07T14:15:15;101145.75;;;31.30;32.58
79645;BME280;69117;47.148;18.954;2023-09-07T14:18:17;101142.69;;;31.64;32.40
79645;BME280;69117;47.148;18.954;2023-09-07T14:21:19;101141.88;;;32.26;31.23
79645;BME280;69117;47.148;18.954;2023-09-07T14:24:20;101144.78;;;31.41;31.15
79645;BME280;69117;47.148;18.954;2023-09-07T14:27:22;101134.28;;;31.28;32.76
79645;BME280;69117;47.148;18.954;2023-09-07T14:30:24;101128.91;;;30.42;32.49
79645;BME280;69117;47.148;18.954;2023-09-07T14:33:25;101142.25;;;30.16;34.10
79645;BME280;69117;47.148;18.954;2023-09-07T14:36:27;101129.34;;;29.45;35.89
79645;BME280;69117;47.148;18.954;2023-09-07T14:39:31;101127.69;;;29.83;36.88
79645;BME280;69117;47.148;18.954;2023-09-07T14:42:33;101136.38;;;30.02;36.60
79645;BME280;69117;47.148;18.954;2023-09-07T14:45:35;101130.59;;;29.77;35.73
79645;BME280;69117;47.148;18.954;2023-09-07T14:48:37;101134.28;;;29.65;34.95
79645;BME280;69117;47.148;18.954;2023-09-07T14:51:38;101132.94;;;28.79;35.22
79645;BME280;69117;47.148;18.954;2023-09-07T14:54:40;101134.41;;;28.69;37.57
79645;BME280;69117;47.148;18.954;2023-09-07T14:57:42;101136.03;;;28.70;38.85
79645;BME280;69117;47.148;18.954;2023-09-07T15:00:44;101131.09;;;28.39;38.26
79645;BME280;69117;47.148;18.954;2023-09-07T15:03:46;101127.09;;;28.41;39.20
79645;BME280;69117;47.148;18.954;2023-09-07T15:06:48;101123.03;;;27.75;39.07
79645;BME280;69117;47.148;18.954;2023-09-07T15:09:49;101122.63;;;27.95;38.79
79645;BME280;69117;47.148;18.954;2023-09-07T15:12:51;101124.41;;;28.01;37.80
79645;BME280;69117;47.148;18.954;2023-09-07T15:15:53;101126.19;;;27.83;41.17
79645;BME280;69117;47.148;18.954;2023-09-07T15:18:55;101138.34;;;27.93;39.80
79645;BME280;69117;47.148;18.954;2023-09-07T15:21:57;101127.63;;;27.86;40.47
79645;BME280;69117;47.148;18.954;2023-09-07T15:24:59;101120.59;;;28.02;39.83
79645;BME280;69117;47.148;18.954;2023-09-07T15:28:02;101118.25;;;28.05;39.87
79645;BME280;69117;47.148;18.954;2023-09-07T15:31:04;101121.03;;;28.11;39.40
79645;BME280;69117;47.148;18.954;2023-09-07T15:34:05;101117.16;;;28.06;40.19
79645;BME280;69117;47.148;18.954;2023-09-07T15:37:07;101113.00;;;27.87;40.68